ADDS METAR Data INFO
IDs: Format: Raw Decoded Include TAF

Data at: 0023 UTC 11 Dec 2017

KDRT 102353Z AUTO 21003KT 10SM CLR 16/03 A3037 RMK AO2 SLP281 T01610033 10206 20161 55003 $